sensor_id;sensor_type;location;lat;lon;timestamp;P1;durP1;ratioP1;P2;durP2;ratioP2
72319;SDS011;60269;52.502;16.732;2024-02-26T00:02:49;103.47;;;36.05;;
72319;SDS011;60269;52.502;16.732;2024-02-26T00:06:21;102.50;;;34.13;;
72319;SDS011;60269;52.502;16.732;2024-02-26T00:09:53;89.67;;;32.47;;
72319;SDS011;60269;52.502;16.732;2024-02-26T00:13:25;93.55;;;32.78;;
72319;SDS011;60269;52.502;16.732;2024-02-26T00:16:57;77.53;;;31.55;;
72319;SDS011;60269;52.502;16.732;2024-02-26T00:20:29;85.95;;;33.88;;
72319;SDS011;60269;52.502;16.732;2024-02-26T00:24:01;99.73;;;36.17;;
72319;SDS011;60269;52.502;16.732;2024-02-26T00:27:33;86.13;;;34.40;;
72319;SDS011;60269;52.502;16.732;2024-02-26T00:31:05;76.40;;;29.42;;
72319;SDS011;60269;52.502;16.732;2024-02-26T00:34:36;90.87;;;32.23;;
72319;SDS011;60269;52.502;16.732;2024-02-26T00:38:08;110.53;;;34.08;;
72319;SDS011;60269;52.502;16.732;2024-02-26T00:41:40;80.75;;;29.70;;
72319;SDS011;60269;52.502;16.732;2024-02-26T00:45:13;77.10;;;30.43;;
72319;SDS011;60269;52.502;16.732;2024-02-26T00:48:46;79.85;;;27.75;;
72319;SDS011;60269;52.502;16.732;2024-02-26T00:52:18;86.15;;;29.90;;
72319;SDS011;60269;52.502;16.732;2024-02-26T00:55:50;82.10;;;29.33;;
72319;SDS011;60269;52.502;16.732;2024-02-26T00:59:22;74.57;;;28.13;;
72319;SDS011;60269;52.502;16.732;2024-02-26T01:02:54;69.50;;;27.85;;
72319;SDS011;60269;52.502;16.732;2024-02-26T01:06:27;55.92;;;26.23;;
72319;SDS011;60269;52.502;16.732;2024-02-26T01:09:58;55.03;;;22.90;;
72319;SDS011;60269;52.502;16.732;2024-02-26T01:13:30;55.08;;;23.38;;
72319;SDS011;60269;52.502;16.732;2024-02-26T01:17:02;57.05;;;22.02;;
72319;SDS011;60269;52.502;16.732;2024-02-26T01:20:34;55.50;;;23.80;;
72319;SDS011;60269;52.502;16.732;2024-02-26T01:24:06;53.50;;;23.20;;
72319;SDS011;60269;52.502;16.732;2024-02-26T01:27:39;61.50;;;23.90;;
72319;SDS011;60269;52.502;16.732;2024-02-26T01:31:13;53.90;;;23.40;;
72319;SDS011;60269;52.502;16.732;2024-02-26T01:34:45;53.13;;;23.00;;
72319;SDS011;60269;52.502;16.732;2024-02-26T01:38:17;57.92;;;22.63;;
72319;SDS011;60269;52.502;16.732;2024-02-26T01:41:49;59.17;;;23.55;;
72319;SDS011;60269;52.502;16.732;2024-02-26T01:45:21;54.97;;;23.03;;
72319;SDS011;60269;52.502;16.732;2024-02-26T01:48:56;56.30;;;22.88;;
72319;SDS011;60269;52.502;16.732;2024-02-26T01:52:28;54.65;;;20.75;;
72319;SDS011;60269;52.502;16.732;2024-02-26T01:56:00;54.10;;;22.07;;
72319;SDS011;60269;52.502;16.732;2024-02-26T01:59:32;53.03;;;20.30;;
72319;SDS011;60269;52.502;16.732;2024-02-26T02:03:06;56.25;;;21.63;;
72319;SDS011;60269;52.502;16.732;2024-02-26T02:06:38;48.90;;;20.13;;
72319;SDS011;60269;52.502;16.732;2024-02-26T02:10:10;49.93;;;20.43;;
72319;SDS011;60269;52.502;16.732;2024-02-26T02:13:42;50.92;;;20.27;;
72319;SDS011;60269;52.502;16.732;2024-02-26T02:17:14;48.63;;;19.52;;
72319;SDS011;60269;52.502;16.732;2024-02-26T02:20:46;58.30;;;21.80;;
72319;SDS011;60269;52.502;16.732;2024-02-26T02:24:19;49.88;;;20.48;;
72319;SDS011;60269;52.502;16.732;2024-02-26T02:27:51;56.47;;;20.00;;
72319;SDS011;60269;52.502;16.732;2024-02-26T02:31:26;48.80;;;20.70;;
72319;SDS011;60269;52.502;16.732;2024-02-26T02:34:58;44.90;;;18.45;;
72319;SDS011;60269;52.502;16.732;2024-02-26T02:38:30;50.20;;;20.75;;
72319;SDS011;60269;52.502;16.732;2024-02-26T02:42:03;56.70;;;21.15;;
72319;SDS011;60269;52.502;16.732;2024-02-26T02:45:35;49.73;;;20.00;;
72319;SDS011;60269;52.502;16.732;2024-02-26T02:49:08;43.58;;;19.58;;
72319;SDS011;60269;52.502;16.732;2024-02-26T02:52:43;58.38;;;19.50;;
72319;SDS011;60269;52.502;16.732;2024-02-26T02:56:15;51.13;;;19.63;;
72319;SDS011;60269;52.502;16.732;2024-02-26T02:59:47;64.72;;;21.02;;
72319;SDS011;60269;52.502;16.732;2024-02-26T03:03:19;57.00;;;18.80;;
72319;SDS011;60269;52.502;16.732;2024-02-26T03:06:51;46.40;;;17.43;;
72319;SDS011;60269;52.502;16.732;2024-02-26T03:10:23;59.20;;;20.98;;
72319;SDS011;60269;52.502;16.732;2024-02-26T03:13:55;52.80;;;18.45;;
72319;SDS011;60269;52.502;16.732;2024-02-26T03:17:27;60.03;;;21.20;;
72319;SDS011;60269;52.502;16.732;2024-02-26T03:20:59;60.13;;;20.00;;
72319;SDS011;60269;52.502;16.732;2024-02-26T03:24:31;50.90;;;18.65;;
72319;SDS011;60269;52.502;16.732;2024-02-26T03:28:03;56.75;;;19.33;;
72319;SDS011;60269;52.502;16.732;2024-02-26T03:31:35;70.93;;;20.13;;
72319;SDS011;60269;52.502;16.732;2024-02-26T03:35:07;68.57;;;20.73;;
72319;SDS011;60269;52.502;16.732;2024-02-26T03:38:40;55.00;;;17.50;;
72319;SDS011;60269;52.502;16.732;2024-02-26T03:42:11;50.17;;;19.40;;
72319;SDS011;60269;52.502;16.732;2024-02-26T03:45:43;48.97;;;18.10;;
72319;SDS011;60269;52.502;16.732;2024-02-26T03:49:15;41.22;;;17.02;;
72319;SDS011;60269;52.502;16.732;2024-02-26T03:52:48;39.58;;;16.55;;
72319;SDS011;60269;52.502;16.732;2024-02-26T03:56:20;43.27;;;17.10;;
72319;SDS011;60269;52.502;16.732;2024-02-26T03:59:52;42.50;;;16.40;;
72319;SDS011;60269;52.502;16.732;2024-02-26T04:03:24;40.15;;;17.08;;
72319;SDS011;60269;52.502;16.732;2024-02-26T04:06:57;39.07;;;15.90;;
72319;SDS011;60269;52.502;16.732;2024-02-26T04:10:29;38.03;;;14.82;;
72319;SDS011;60269;52.502;16.732;2024-02-26T04:14:01;35.22;;;15.80;;
72319;SDS011;60269;52.502;16.732;2024-02-26T04:17:34;39.07;;;15.33;;
72319;SDS011;60269;52.502;16.732;2024-02-26T04:21:07;35.70;;;16.38;;
72319;SDS011;60269;52.502;16.732;2024-02-26T04:24:39;38.65;;;15.00;;
72319;SDS011;60269;52.502;16.732;2024-02-26T04:28:11;40.38;;;14.50;;
72319;SDS011;60269;52.502;16.732;2024-02-26T04:31:44;41.60;;;17.03;;
72319;SDS011;60269;52.502;16.732;2024-02-26T04:35:17;38.67;;;15.73;;
72319;SDS011;60269;52.502;16.732;2024-02-26T04:38:49;36.00;;;14.82;;
72319;SDS011;60269;52.502;16.732;2024-02-26T04:42:21;45.00;;;16.43;;
72319;SDS011;60269;52.502;16.732;2024-02-26T04:45:53;41.00;;;16.08;;
72319;SDS011;60269;52.502;16.732;2024-02-26T04:49:26;48.83;;;19.90;;
72319;SDS011;60269;52.502;16.732;2024-02-26T04:52:58;42.60;;;17.77;;
72319;SDS011;60269;52.502;16.732;2024-02-26T04:56:30;49.25;;;19.55;;
72319;SDS011;60269;52.502;16.732;2024-02-26T05:00:03;38.33;;;17.42;;
72319;SDS011;60269;52.502;16.732;2024-02-26T05:03:36;41.25;;;17.50;;
72319;SDS011;60269;52.502;16.732;2024-02-26T05:07:09;43.57;;;16.93;;
72319;SDS011;60269;52.502;16.732;2024-02-26T05:10:41;39.58;;;16.08;;
72319;SDS011;60269;52.502;16.732;2024-02-26T05:14:15;40.97;;;16.80;;
72319;SDS011;60269;52.502;16.732;2024-02-26T05:17:46;42.87;;;15.60;;
72319;SDS011;60269;52.502;16.732;2024-02-26T05:21:19;35.13;;;16.27;;
72319;SDS011;60269;52.502;16.732;2024-02-26T05:24:51;43.17;;;16.98;;
72319;SDS011;60269;52.502;16.732;2024-02-26T05:28:24;35.03;;;14.33;;
72319;SDS011;60269;52.502;16.732;2024-02-26T05:31:56;45.20;;;17.15;;
72319;SDS011;60269;52.502;16.732;2024-02-26T05:35:27;38.88;;;16.70;;
72319;SDS011;60269;52.502;16.732;2024-02-26T05:39:00;40.25;;;17.92;;
72319;SDS011;60269;52.502;16.732;2024-02-26T05:42:32;45.23;;;17.50;;
72319;SDS011;60269;52.502;16.732;2024-02-26T05:46:04;44.40;;;18.02;;
72319;SDS011;60269;52.502;16.732;2024-02-26T05:49:37;45.40;;;17.88;;
72319;SDS011;60269;52.502;16.732;2024-02-26T05:53:09;56.03;;;19.10;;
72319;SDS011;60269;52.502;16.732;2024-02-26T05:56:41;53.65;;;21.80;;
72319;SDS011;60269;52.502;16.732;2024-02-26T06:00:14;63.05;;;22.45;;
72319;SDS011;60269;52.502;16.732;2024-02-26T06:03:46;70.40;;;24.63;;
72319;SDS011;60269;52.502;16.732;2024-02-26T06:07:18;72.28;;;25.45;;
72319;SDS011;60269;52.502;16.732;2024-02-26T06:10:50;63.35;;;24.42;;
72319;SDS011;60269;52.502;16.732;2024-02-26T06:14:22;66.72;;;24.80;;
72319;SDS011;60269;52.502;16.732;2024-02-26T06:17:55;64.03;;;23.57;;
72319;SDS011;60269;52.502;16.732;2024-02-26T06:21:27;52.42;;;21.15;;
72319;SDS011;60269;52.502;16.732;2024-02-26T06:24:59;58.53;;;22.25;;
72319;SDS011;60269;52.502;16.732;2024-02-26T06:28:31;60.33;;;22.67;;
72319;SDS011;60269;52.502;16.732;2024-02-26T06:32:05;53.28;;;20.60;;
72319;SDS011;60269;52.502;16.732;2024-02-26T06:35:37;55.72;;;22.67;;
72319;SDS011;60269;52.502;16.732;2024-02-26T06:39:10;54.53;;;21.53;;
72319;SDS011;60269;52.502;16.732;2024-02-26T06:42:42;49.60;;;19.63;;
72319;SDS011;60269;52.502;16.732;2024-02-26T06:46:19;51.83;;;21.35;;
72319;SDS011;60269;52.502;16.732;2024-02-26T06:49:51;42.70;;;18.67;;
72319;SDS011;60269;52.502;16.732;2024-02-26T06:53:23;46.00;;;19.20;;
72319;SDS011;60269;52.502;16.732;2024-02-26T06:56:55;63.63;;;25.27;;
72319;SDS011;60269;52.502;16.732;2024-02-26T07:00:27;66.35;;;27.60;;
72319;SDS011;60269;52.502;16.732;2024-02-26T07:03:59;69.87;;;29.47;;
72319;SDS011;60269;52.502;16.732;2024-02-26T07:07:32;65.50;;;26.83;;
72319;SDS011;60269;52.502;16.732;2024-02-26T07:11:07;59.40;;;24.50;;
72319;SDS011;60269;52.502;16.732;2024-02-26T07:14:40;51.27;;;23.63;;
72319;SDS011;60269;52.502;16.732;2024-02-26T07:18:12;47.58;;;21.05;;
72319;SDS011;60269;52.502;16.732;2024-02-26T07:21:45;49.80;;;21.55;;
72319;SDS011;60269;52.502;16.732;2024-02-26T07:25:17;46.85;;;21.67;;
72319;SDS011;60269;52.502;16.732;2024-02-26T07:28:49;44.37;;;20.90;;
72319;SDS011;60269;52.502;16.732;2024-02-26T07:32:21;52.83;;;24.42;;
72319;SDS011;60269;52.502;16.732;2024-02-26T07:35:54;50.95;;;23.90;;
72319;SDS011;60269;52.502;16.732;2024-02-26T07:39:26;48.90;;;22.33;;
72319;SDS011;60269;52.502;16.732;2024-02-26T07:42:58;44.17;;;20.50;;
72319;SDS011;60269;52.502;16.732;2024-02-26T07:46:30;47.72;;;21.90;;
72319;SDS011;60269;52.502;16.732;2024-02-26T07:50:02;50.70;;;22.43;;
72319;SDS011;60269;52.502;16.732;2024-02-26T07:53:34;48.67;;;23.10;;
72319;SDS011;60269;52.502;16.732;2024-02-26T07:57:06;47.45;;;24.33;;
72319;SDS011;60269;52.502;16.732;2024-02-26T08:00:39;51.80;;;22.95;;
72319;SDS011;60269;52.502;16.732;2024-02-26T08:04:11;50.63;;;22.60;;
72319;SDS011;60269;52.502;16.732;2024-02-26T08:07:43;47.97;;;22.48;;
72319;SDS011;60269;52.502;16.732;2024-02-26T08:11:15;48.97;;;22.52;;
72319;SDS011;60269;52.502;16.732;2024-02-26T08:14:47;44.00;;;21.20;;
72319;SDS011;60269;52.502;16.732;2024-02-26T08:18:19;39.47;;;20.42;;
72319;SDS011;60269;52.502;16.732;2024-02-26T08:21:52;41.35;;;19.58;;
72319;SDS011;60269;52.502;16.732;2024-02-26T08:25:24;36.60;;;17.23;;
72319;SDS011;60269;52.502;16.732;2024-02-26T08:28:56;36.55;;;15.88;;
72319;SDS011;60269;52.502;16.732;2024-02-26T08:32:30;35.50;;;16.35;;
72319;SDS011;60269;52.502;16.732;2024-02-26T08:36:05;32.80;;;17.00;;
72319;SDS011;60269;52.502;16.732;2024-02-26T08:39:38;34.20;;;17.27;;
72319;SDS011;60269;52.502;16.732;2024-02-26T08:43:11;39.42;;;18.48;;
72319;SDS011;60269;52.502;16.732;2024-02-26T08:46:43;36.40;;;18.08;;
72319;SDS011;60269;52.502;16.732;2024-02-26T08:50:15;33.07;;;16.23;;
72319;SDS011;60269;52.502;16.732;2024-02-26T08:53:47;36.58;;;17.42;;
72319;SDS011;60269;52.502;16.732;2024-02-26T08:57:20;31.17;;;16.33;;
72319;SDS011;60269;52.502;16.732;2024-02-26T09:00:52;36.63;;;17.87;;
72319;SDS011;60269;52.502;16.732;2024-02-26T09:04:24;31.20;;;15.63;;
72319;SDS011;60269;52.502;16.732;2024-02-26T09:07:58;25.25;;;13.70;;
72319;SDS011;60269;52.502;16.732;2024-02-26T09:11:30;28.08;;;13.80;;
72319;SDS011;60269;52.502;16.732;2024-02-26T09:15:03;24.50;;;11.73;;
72319;SDS011;60269;52.502;16.732;2024-02-26T09:18:35;23.88;;;12.18;;
72319;SDS011;60269;52.502;16.732;2024-02-26T09:22:08;25.73;;;13.20;;
72319;SDS011;60269;52.502;16.732;2024-02-26T09:25:40;24.57;;;12.07;;
72319;SDS011;60269;52.502;16.732;2024-02-26T09:29:12;26.42;;;14.35;;
72319;SDS011;60269;52.502;16.732;2024-02-26T09:32:45;22.83;;;13.43;;
72319;SDS011;60269;52.502;16.732;2024-02-26T09:36:18;21.87;;;12.97;;
72319;SDS011;60269;52.502;16.732;2024-02-26T09:39:50;22.95;;;13.48;;
72319;SDS011;60269;52.502;16.732;2024-02-26T09:43:22;23.65;;;14.15;;
72319;SDS011;60269;52.502;16.732;2024-02-26T09:46:57;20.92;;;13.68;;
72319;SDS011;60269;52.502;16.732;2024-02-26T09:50:29;23.00;;;14.03;;
72319;SDS011;60269;52.502;16.732;2024-02-26T09:54:01;27.98;;;14.88;;
72319;SDS011;60269;52.502;16.732;2024-02-26T09:57:37;22.75;;;13.88;;
72319;SDS011;60269;52.502;16.732;2024-02-26T10:01:11;22.67;;;12.57;;
72319;SDS011;60269;52.502;16.732;2024-02-26T10:04:45;27.27;;;14.52;;
72319;SDS011;60269;52.502;16.732;2024-02-26T10:08:22;23.85;;;13.68;;
72319;SDS011;60269;52.502;16.732;2024-02-26T10:11:55;24.20;;;14.60;;
72319;SDS011;60269;52.502;16.732;2024-02-26T10:15:28;25.75;;;15.38;;
72319;SDS011;60269;52.502;16.732;2024-02-26T10:19:01;25.27;;;15.63;;
72319;SDS011;60269;52.502;16.732;2024-02-26T10:22:33;28.95;;;14.10;;
72319;SDS011;60269;52.502;16.732;2024-02-26T10:26:05;22.93;;;14.50;;
72319;SDS011;60269;52.502;16.732;2024-02-26T10:29:38;21.80;;;13.13;;
72319;SDS011;60269;52.502;16.732;2024-02-26T10:33:10;22.48;;;14.23;;
72319;SDS011;60269;52.502;16.732;2024-02-26T10:36:43;27.47;;;14.10;;
72319;SDS011;60269;52.502;16.732;2024-02-26T10:40:24;21.70;;;13.82;;
72319;SDS011;60269;52.502;16.732;2024-02-26T10:43:57;26.15;;;14.70;;
72319;SDS011;60269;52.502;16.732;2024-02-26T10:47:29;22.47;;;13.57;;
72319;SDS011;60269;52.502;16.732;2024-02-26T10:51:02;21.58;;;12.95;;
72319;SDS011;60269;52.502;16.732;2024-02-26T10:54:34;22.65;;;13.15;;
72319;SDS011;60269;52.502;16.732;2024-02-26T10:58:10;21.52;;;14.43;;
72319;SDS011;60269;52.502;16.732;2024-02-26T11:01:44;21.10;;;14.57;;
72319;SDS011;60269;52.502;16.732;2024-02-26T11:05:18;21.67;;;10.13;;
72319;SDS011;60269;52.502;16.732;2024-02-26T11:08:51;19.33;;;9.65;;
72319;SDS011;60269;52.502;16.732;2024-02-26T11:12:24;21.67;;;10.10;;
72319;SDS011;60269;52.502;16.732;2024-02-26T11:15:58;17.77;;;9.05;;
72319;SDS011;60269;52.502;16.732;2024-02-26T11:19:30;19.30;;;11.82;;
72319;SDS011;60269;52.502;16.732;2024-02-26T11:23:09;19.00;;;11.27;;
72319;SDS011;60269;52.502;16.732;2024-02-26T11:26:50;23.83;;;11.97;;
72319;SDS011;60269;52.502;16.732;2024-02-26T11:30:32;21.75;;;12.98;;
72319;SDS011;60269;52.502;16.732;2024-02-26T11:34:08;18.60;;;7.82;;
72319;SDS011;60269;52.502;16.732;2024-02-26T11:37:41;18.07;;;8.77;;
72319;SDS011;60269;52.502;16.732;2024-02-26T11:41:16;19.90;;;8.63;;
72319;SDS011;60269;52.502;16.732;2024-02-26T11:44:49;16.42;;;7.70;;
72319;SDS011;60269;52.502;16.732;2024-02-26T11:48:22;16.13;;;6.95;;
72319;SDS011;60269;52.502;16.732;2024-02-26T11:51:56;15.90;;;7.23;;
72319;SDS011;60269;52.502;16.732;2024-02-26T11:55:32;15.82;;;7.15;;
72319;SDS011;60269;52.502;16.732;2024-02-26T11:59:08;16.60;;;6.72;;
72319;SDS011;60269;52.502;16.732;2024-02-26T12:02:55;14.07;;;6.23;;
72319;SDS011;60269;52.502;16.732;2024-02-26T12:06:41;16.25;;;6.57;;
72319;SDS011;60269;52.502;16.732;2024-02-26T12:10:15;14.88;;;7.55;;
72319;SDS011;60269;52.502;16.732;2024-02-26T12:13:47;15.07;;;7.45;;
72319;SDS011;60269;52.502;16.732;2024-02-26T12:17:23;11.67;;;5.93;;
72319;SDS011;60269;52.502;16.732;2024-02-26T12:20:59;14.77;;;5.95;;
72319;SDS011;60269;52.502;16.732;2024-02-26T12:24:35;12.65;;;5.57;;
72319;SDS011;60269;52.502;16.732;2024-02-26T12:28:07;13.83;;;5.77;;
72319;SDS011;60269;52.502;16.732;2024-02-26T12:31:39;11.48;;;5.40;;
72319;SDS011;60269;52.502;16.732;2024-02-26T12:35:12;10.23;;;4.70;;
72319;SDS011;60269;52.502;16.732;2024-02-26T12:38:44;13.43;;;5.43;;
72319;SDS011;60269;52.502;16.732;2024-02-26T12:42:16;14.88;;;6.25;;
72319;SDS011;60269;52.502;16.732;2024-02-26T12:45:49;12.65;;;6.57;;
72319;SDS011;60269;52.502;16.732;2024-02-26T12:49:22;20.83;;;6.93;;
72319;SDS011;60269;52.502;16.732;2024-02-26T12:52:54;12.43;;;5.80;;
72319;SDS011;60269;52.502;16.732;2024-02-26T12:56:26;13.65;;;6.20;;
72319;SDS011;60269;52.502;16.732;2024-02-26T12:59:59;13.18;;;5.25;;
72319;SDS011;60269;52.502;16.732;2024-02-26T13:03:34;12.83;;;5.57;;
72319;SDS011;60269;52.502;16.732;2024-02-26T13:07:07;13.70;;;5.70;;
72319;SDS011;60269;52.502;16.732;2024-02-26T13:10:39;13.52;;;5.78;;
72319;SDS011;60269;52.502;16.732;2024-02-26T13:14:21;11.90;;;5.60;;
72319;SDS011;60269;52.502;16.732;2024-02-26T13:17:53;15.32;;;6.43;;
72319;SDS011;60269;52.502;16.732;2024-02-26T13:21:25;13.80;;;6.57;;
72319;SDS011;60269;52.502;16.732;2024-02-26T13:24:58;16.48;;;7.25;;
72319;SDS011;60269;52.502;16.732;2024-02-26T13:28:31;13.20;;;6.03;;
72319;SDS011;60269;52.502;16.732;2024-02-26T13:32:04;16.20;;;6.88;;
72319;SDS011;60269;52.502;16.732;2024-02-26T13:35:40;18.38;;;7.28;;
72319;SDS011;60269;52.502;16.732;2024-02-26T13:39:20;17.50;;;7.30;;
72319;SDS011;60269;52.502;16.732;2024-02-26T13:42:56;15.88;;;10.70;;
72319;SDS011;60269;52.502;16.732;2024-02-26T13:46:28;18.23;;;9.30;;
72319;SDS011;60269;52.502;16.732;2024-02-26T13:50:01;17.87;;;7.63;;
72319;SDS011;60269;52.502;16.732;2024-02-26T13:53:33;15.85;;;6.97;;
72319;SDS011;60269;52.502;16.732;2024-02-26T13:57:06;15.88;;;7.10;;
72319;SDS011;60269;52.502;16.732;2024-02-26T14:00:38;19.50;;;7.47;;
72319;SDS011;60269;52.502;16.732;2024-02-26T14:04:12;15.37;;;7.37;;
72319;SDS011;60269;52.502;16.732;2024-02-26T14:07:44;18.20;;;7.68;;
72319;SDS011;60269;52.502;16.732;2024-02-26T14:11:20;15.32;;;7.32;;
72319;SDS011;60269;52.502;16.732;2024-02-26T14:14:52;17.03;;;7.90;;
72319;SDS011;60269;52.502;16.732;2024-02-26T14:18:25;16.83;;;7.47;;
72319;SDS011;60269;52.502;16.732;2024-02-26T14:21:59;17.58;;;7.78;;
72319;SDS011;60269;52.502;16.732;2024-02-26T14:25:31;17.63;;;8.37;;
72319;SDS011;60269;52.502;16.732;2024-02-26T14:29:03;18.90;;;8.32;;
72319;SDS011;60269;52.502;16.732;2024-02-26T14:32:35;15.73;;;7.53;;
72319;SDS011;60269;52.502;16.732;2024-02-26T14:36:09;20.25;;;7.60;;
72319;SDS011;60269;52.502;16.732;2024-02-26T14:39:42;19.10;;;7.43;;
72319;SDS011;60269;52.502;16.732;2024-02-26T14:43:14;17.58;;;7.32;;
72319;SDS011;60269;52.502;16.732;2024-02-26T14:46:46;20.95;;;7.40;;
72319;SDS011;60269;52.502;16.732;2024-02-26T14:50:17;16.73;;;6.77;;
72319;SDS011;60269;52.502;16.732;2024-02-26T14:53:50;15.48;;;7.38;;
72319;SDS011;60269;52.502;16.732;2024-02-26T14:57:23;17.20;;;7.00;;
72319;SDS011;60269;52.502;16.732;2024-02-26T15:00:56;16.60;;;7.10;;
72319;SDS011;60269;52.502;16.732;2024-02-26T15:04:28;16.17;;;7.43;;
72319;SDS011;60269;52.502;16.732;2024-02-26T15:08:00;18.98;;;8.00;;
72319;SDS011;60269;52.502;16.732;2024-02-26T15:11:37;20.23;;;7.88;;
72319;SDS011;60269;52.502;16.732;2024-02-26T15:15:11;19.80;;;7.97;;
72319;SDS011;60269;52.502;16.732;2024-02-26T15:18:43;42.40;;;17.30;;
72319;SDS011;60269;52.502;16.732;2024-02-26T15:22:15;49.90;;;19.17;;
72319;SDS011;60269;52.502;16.732;2024-02-26T15:25:47;26.70;;;11.00;;
72319;SDS011;60269;52.502;16.732;2024-02-26T15:29:19;24.23;;;10.32;;
72319;SDS011;60269;52.502;16.732;2024-02-26T15:32:51;22.52;;;11.23;;
72319;SDS011;60269;52.502;16.732;2024-02-26T15:36:23;30.53;;;10.60;;
72319;SDS011;60269;52.502;16.732;2024-02-26T15:39:55;18.40;;;8.20;;
72319;SDS011;60269;52.502;16.732;2024-02-26T15:43:27;20.65;;;8.70;;
72319;SDS011;60269;52.502;16.732;2024-02-26T15:46:59;16.40;;;8.60;;
72319;SDS011;60269;52.502;16.732;2024-02-26T15:50:32;19.27;;;8.73;;
72319;SDS011;60269;52.502;16.732;2024-02-26T15:54:04;17.35;;;7.80;;
72319;SDS011;60269;52.502;16.732;2024-02-26T15:57:36;24.95;;;9.25;;
72319;SDS011;60269;52.502;16.732;2024-02-26T16:01:08;24.23;;;9.73;;
72319;SDS011;60269;52.502;16.732;2024-02-26T16:04:53;22.67;;;9.63;;
72319;SDS011;60269;52.502;16.732;2024-02-26T16:08:26;20.58;;;8.82;;
72319;SDS011;60269;52.502;16.732;2024-02-26T16:11:59;21.67;;;8.83;;
72319;SDS011;60269;52.502;16.732;2024-02-26T16:15:34;22.17;;;9.07;;
72319;SDS011;60269;52.502;16.732;2024-02-26T16:19:08;20.25;;;8.60;;
72319;SDS011;60269;52.502;16.732;2024-02-26T16:22:47;20.90;;;7.93;;
72319;SDS011;60269;52.502;16.732;2024-02-26T16:26:20;14.40;;;6.80;;
72319;SDS011;60269;52.502;16.732;2024-02-26T16:29:52;17.52;;;6.78;;
72319;SDS011;60269;52.502;16.732;2024-02-26T16:33:24;17.23;;;7.28;;
72319;SDS011;60269;52.502;16.732;2024-02-26T16:36:57;20.67;;;7.13;;
72319;SDS011;60269;52.502;16.732;2024-02-26T16:40:29;19.42;;;7.53;;
72319;SDS011;60269;52.502;16.732;2024-02-26T16:44:02;19.52;;;7.40;;
72319;SDS011;60269;52.502;16.732;2024-02-26T16:47:35;23.07;;;8.87;;
72319;SDS011;60269;52.502;16.732;2024-02-26T16:51:10;21.90;;;9.82;;
72319;SDS011;60269;52.502;16.732;2024-02-26T16:54:42;21.88;;;10.43;;
72319;SDS011;60269;52.502;16.732;2024-02-26T16:58:14;24.52;;;9.50;;
72319;SDS011;60269;52.502;16.732;2024-02-26T17:01:47;22.83;;;10.47;;
72319;SDS011;60269;52.502;16.732;2024-02-26T17:05:19;24.63;;;11.43;;
72319;SDS011;60269;52.502;16.732;2024-02-26T17:08:51;28.10;;;12.10;;
72319;SDS011;60269;52.502;16.732;2024-02-26T17:12:26;27.17;;;11.80;;
72319;SDS011;60269;52.502;16.732;2024-02-26T17:15:58;26.13;;;12.40;;
72319;SDS011;60269;52.502;16.732;2024-02-26T17:19:30;30.23;;;12.10;;
72319;SDS011;60269;52.502;16.732;2024-02-26T17:23:02;29.80;;;13.33;;
72319;SDS011;60269;52.502;16.732;2024-02-26T17:26:34;33.92;;;13.70;;
72319;SDS011;60269;52.502;16.732;2024-02-26T17:30:06;31.55;;;13.48;;
72319;SDS011;60269;52.502;16.732;2024-02-26T17:33:39;35.30;;;13.52;;
72319;SDS011;60269;52.502;16.732;2024-02-26T17:37:11;35.23;;;14.17;;
72319;SDS011;60269;52.502;16.732;2024-02-26T17:40:43;35.90;;;13.18;;
72319;SDS011;60269;52.502;16.732;2024-02-26T17:44:15;29.75;;;13.80;;
72319;SDS011;60269;52.502;16.732;2024-02-26T17:47:47;30.20;;;12.73;;
72319;SDS011;60269;52.502;16.732;2024-02-26T17:51:22;33.55;;;14.38;;
72319;SDS011;60269;52.502;16.732;2024-02-26T17:54:54;28.20;;;12.57;;
72319;SDS011;60269;52.502;16.732;2024-02-26T17:58:26;29.27;;;13.37;;
72319;SDS011;60269;52.502;16.732;2024-02-26T18:01:59;34.47;;;13.43;;
72319;SDS011;60269;52.502;16.732;2024-02-26T18:05:31;37.60;;;12.77;;
72319;SDS011;60269;52.502;16.732;2024-02-26T18:09:03;34.50;;;14.57;;
72319;SDS011;60269;52.502;16.732;2024-02-26T18:12:35;32.33;;;14.30;;
72319;SDS011;60269;52.502;16.732;2024-02-26T18:16:07;40.60;;;15.25;;
72319;SDS011;60269;52.502;16.732;2024-02-26T18:19:39;39.35;;;15.98;;
72319;SDS011;60269;52.502;16.732;2024-02-26T18:23:12;38.17;;;15.67;;
72319;SDS011;60269;52.502;16.732;2024-02-26T18:26:45;36.05;;;14.35;;
72319;SDS011;60269;52.502;16.732;2024-02-26T18:30:21;32.50;;;13.50;;
72319;SDS011;60269;52.502;16.732;2024-02-26T18:33:53;32.87;;;13.00;;
72319;SDS011;60269;52.502;16.732;2024-02-26T18:37:25;30.15;;;13.07;;
72319;SDS011;60269;52.502;16.732;2024-02-26T18:40:57;33.83;;;15.05;;
72319;SDS011;60269;52.502;16.732;2024-02-26T18:44:29;34.75;;;15.95;;
72319;SDS011;60269;52.502;16.732;2024-02-26T18:48:02;36.80;;;16.07;;
72319;SDS011;60269;52.502;16.732;2024-02-26T18:51:35;39.88;;;15.93;;
72319;SDS011;60269;52.502;16.732;2024-02-26T18:55:07;39.88;;;17.48;;
72319;SDS011;60269;52.502;16.732;2024-02-26T18:58:39;42.93;;;15.87;;
72319;SDS011;60269;52.502;16.732;2024-02-26T19:02:11;37.28;;;15.85;;
72319;SDS011;60269;52.502;16.732;2024-02-26T19:05:44;38.35;;;14.85;;
72319;SDS011;60269;52.502;16.732;2024-02-26T19:09:16;30.80;;;13.37;;
72319;SDS011;60269;52.502;16.732;2024-02-26T19:12:48;32.33;;;13.10;;
72319;SDS011;60269;52.502;16.732;2024-02-26T19:16:20;25.65;;;10.70;;
72319;SDS011;60269;52.502;16.732;2024-02-26T19:19:52;28.25;;;11.88;;
72319;SDS011;60269;52.502;16.732;2024-02-26T19:23:24;29.23;;;11.37;;
72319;SDS011;60269;52.502;16.732;2024-02-26T19:26:56;34.47;;;11.02;;
72319;SDS011;60269;52.502;16.732;2024-02-26T19:30:28;27.63;;;12.30;;
72319;SDS011;60269;52.502;16.732;2024-02-26T19:34:00;31.83;;;13.97;;
72319;SDS011;60269;52.502;16.732;2024-02-26T19:37:33;33.50;;;13.63;;
72319;SDS011;60269;52.502;16.732;2024-02-26T19:41:05;30.38;;;13.10;;
72319;SDS011;60269;52.502;16.732;2024-02-26T19:44:37;32.17;;;13.73;;
72319;SDS011;60269;52.502;16.732;2024-02-26T19:48:09;34.28;;;13.98;;
72319;SDS011;60269;52.502;16.732;2024-02-26T19:51:42;34.50;;;14.40;;
72319;SDS011;60269;52.502;16.732;2024-02-26T19:55:15;36.72;;;14.68;;
72319;SDS011;60269;52.502;16.732;2024-02-26T19:58:47;36.70;;;14.13;;
72319;SDS011;60269;52.502;16.732;2024-02-26T20:02:19;35.10;;;15.30;;
72319;SDS011;60269;52.502;16.732;2024-02-26T20:05:52;39.35;;;14.90;;
72319;SDS011;60269;52.502;16.732;2024-02-26T20:09:23;31.87;;;14.63;;
72319;SDS011;60269;52.502;16.732;2024-02-26T20:13:02;39.88;;;15.52;;
72319;SDS011;60269;52.502;16.732;2024-02-26T20:16:35;40.08;;;16.52;;
72319;SDS011;60269;52.502;16.732;2024-02-26T20:20:07;38.17;;;16.33;;
72319;SDS011;60269;52.502;16.732;2024-02-26T20:23:40;34.78;;;15.18;;
72319;SDS011;60269;52.502;16.732;2024-02-26T20:27:13;37.42;;;14.15;;
72319;SDS011;60269;52.502;16.732;2024-02-26T20:30:45;32.35;;;13.68;;